Time;durP1;ratioP1;P1;durP2;ratioP2;P2;SDS_P1;SDS_P2;PMS_P1;PMS_P2;Temp;Humidity;BMP_temperature;BMP_pressure;BME280_temperature;BME280_humidity;BME280_pressure;Samples;Min_cycle;Max_cycle;Signal;HPM_P1;HPM_P2
2023/03/09 00:01:16;;;;;;;;;;;;;;;-0.29;100.00;99105.47;5004902;28;19921;-73
2023/03/09 00:03:41;;;;;;;;;;;;;;;-0.31;100.00;99102.91;5003105;28;19925;-72
2023/03/09 00:06:06;;;;;;;;;;;;;;;-0.28;100.00;99096.63;5005217;28;20360;-72
2023/03/09 00:08:32;;;;;;;;;;;;;;;-0.34;100.00;99091.72;5005569;28;20011;-72
2023/03/09 00:10:58;;;;;;;;;;;;;;;-0.25;100.00;99083.22;5004746;28;20501;-72
2023/03/09 00:13:23;;;;;;;;;;;;;;;-0.25;100.00;99091.13;4999485;28;20268;-72
2023/03/09 00:15:50;;;;;;;;;;;;;;;-0.29;100.00;99094.06;4998488;28;19957;-72
2023/03/09 00:18:19;;;;;;;;;;;;;;;-0.31;100.00;99087.09;5003484;28;19925;-72
2023/03/09 00:20:44;;;;;;;;;;;;;;;-0.31;100.00;99079.19;4999683;28;20283;-72
2023/03/09 00:23:10;;;;;;;;;;;;;;;-0.30;100.00;99061.56;5023354;28;19921;-73
2023/03/09 00:25:35;;;;;;;;;;;;;;;-0.32;100.00;99051.09;5013146;28;20325;-73
2023/03/09 00:28:01;;;;;;;;;;;;;;;-0.34;100.00;99083.81;4998323;28;20359;-73
2023/03/09 00:30:26;;;;;;;;;;;;;;;-0.25;100.00;99090.31;5014168;28;19972;-73
2023/03/09 00:32:52;;;;;;;;;;;;;;;-0.26;100.00;99099.16;5007411;28;20370;-73
2023/03/09 00:35:17;;;;;;;;;;;;;;;-0.22;100.00;99108.56;4997424;28;20477;-72
2023/03/09 00:37:42;;;;;;;;;;;;;;;-0.28;100.00;99103.66;4997253;28;20337;-73
2023/03/09 00:40:09;;;;;;;;;;;;;;;-0.24;100.00;99092.00;5012655;28;20394;-72
2023/03/09 00:42:35;;;;;;;;;;;;;;;-0.19;100.00;99093.41;5011177;28;20031;-72
2023/03/09 00:45:00;;;;;;;;;;;;;;;-0.21;100.00;99107.63;4983828;28;19925;-73
2023/03/09 00:47:26;;;;;;;;;;;;;;;-0.30;100.00;99106.41;5013188;28;19926;-72
2023/03/09 00:49:51;;;;;;;;;;;;;;;-0.26;100.00;99120.25;4999709;28;19963;-72
2023/03/09 00:52:17;;;;;;;;;;;;;;;-0.28;100.00;99120.34;4995344;28;19929;-73
2023/03/09 00:54:42;;;;;;;;;;;;;;;-0.33;100.00;99123.25;5000041;28;19933;-72
2023/03/09 00:57:07;;;;;;;;;;;;;;;-0.31;100.00;99124.00;4998266;28;20452;-73
2023/03/09 00:59:32;;;;;;;;;;;;;;;-0.22;100.00;99140.22;4995989;28;20365;-73
2023/03/09 01:01:59;;;;;;;;;;;;;;;-0.33;100.00;99128.53;4997464;28;20019;-72
2023/03/09 01:04:24;;;;;;;;;;;;;;;-0.24;100.00;99129.75;5012287;28;19921;-72
2023/03/09 01:06:49;;;;;;;;;;;;;;;-0.21;100.00;99137.50;4996992;28;19922;-73
2023/03/09 01:09:14;;;;;;;;;;;;;;;-0.19;100.00;99130.34;5048156;22;19985;-73
2023/03/09 01:11:40;;;;;;;;;;;;;;;-0.20;100.00;99133.06;5049879;28;21515;-73
2023/03/09 01:14:05;;;;;;;;;;;;;;;-0.18;100.00;99139.94;5001775;28;19921;-72
2023/03/09 01:16:30;;;;;;;;;;;;;;;-0.16;100.00;99153.91;5017051;28;20378;-72
2023/03/09 01:18:55;;;;;;;;;;;;;;;-0.11;100.00;99164.16;5037238;28;20295;-72
2023/03/09 01:21:21;;;;;;;;;;;;;;;-0.04;100.00;99167.31;5034376;28;20023;-72
2023/03/09 01:23:46;;;;;;;;;;;;;;;-0.06;100.00;99177.09;5019556;28;19924;-72
2023/03/09 01:26:12;;;;;;;;;;;;;;;-0.04;100.00;99178.69;5032504;28;19928;-72
2023/03/09 01:28:37;;;;;;;;;;;;;;;-0.02;100.00;99179.44;5020267;28;19927;-72
2023/03/09 01:31:20;;;;;;;;;;;;;;;-0.09;100.00;99188.66;5020600;28;20011;-73
2023/03/09 01:33:46;;;;;;;;;;;;;;;-0.05;100.00;99168.25;5036407;28;19917;-72
2023/03/09 01:36:13;;;;;;;;;;;;;;;-0.08;100.00;99176.34;5035644;28;19932;-72
2023/03/09 01:38:38;;;;;;;;;;;;;;;-0.16;100.00;99180.28;5030374;28;20150;-72
2023/03/09 01:41:03;;;;;;;;;;;;;;;-0.11;100.00;99174.72;5029533;28;19928;-72
2023/03/09 01:43:34;;;;;;;;;;;;;;;-0.12;100.00;99190.66;5017623;28;19924;-72
2023/03/09 01:46:18;;;;;;;;;;;;;;;-0.12;100.00;99191.47;5018460;28;19956;-73
2023/03/09 01:48:44;;;;;;;;;;;;;;;-0.14;100.00;99192.53;5037141;28;19920;-72
2023/03/09 01:51:09;;;;;;;;;;;;;;;-0.11;100.00;99202.91;5034553;28;20287;-73
2023/03/09 01:53:34;;;;;;;;;;;;;;;-0.13;100.00;99194.22;5033783;28;20401;-72
2023/03/09 01:55:59;;;;;;;;;;;;;;;-0.08;100.00;99189.53;5024679;28;19927;-73
2023/03/09 01:58:25;;;;;;;;;;;;;;;-0.08;100.00;99190.34;5025274;28;19925;-72
2023/03/09 02:00:51;;;;;;;;;;;;;;;-0.07;100.00;99194.69;5025250;28;20242;-73
2023/03/09 02:03:21;;;;;;;;;;;;;;;-0.13;100.00;99202.13;5038349;28;19968;-72
2023/03/09 02:05:50;;;;;;;;;;;;;;;-0.08;100.00;99210.63;5052210;28;20212;-72
2023/03/09 02:08:15;;;;;;;;;;;;;;;-0.12;100.00;99209.13;5038340;28;20429;-72
2023/03/09 02:10:43;;;;;;;;;;;;;;;-0.09;100.00;99214.22;5041372;28;19920;-72
2023/03/09 02:13:09;;;;;;;;;;;;;;;-0.14;100.00;99214.50;5037822;28;20065;-72
2023/03/09 02:15:35;;;;;;;;;;;;;;;-0.11;100.00;99213.44;5039992;28;20128;-72
2023/03/09 02:18:00;;;;;;;;;;;;;;;-0.05;100.00;99228.94;5037775;28;20332;-73
2023/03/09 02:20:25;;;;;;;;;;;;;;;-0.06;100.00;99224.59;5021776;28;20367;-72
2023/03/09 02:22:50;;;;;;;;;;;;;;;-0.01;100.00;99228.63;5043068;28;20509;-72
2023/03/09 02:25:15;;;;;;;;;;;;;;;-0.16;100.00;99216.38;5028028;28;19924;-72
2023/03/09 02:27:41;;;;;;;;;;;;;;;-0.07;100.00;99226.38;5042833;28;19970;-72
2023/03/09 02:30:07;;;;;;;;;;;;;;;-0.07;100.00;99220.25;5021782;28;20310;-72
2023/03/09 02:32:32;;;;;;;;;;;;;;;-0.03;100.00;99249.00;5036187;28;20019;-72
2023/03/09 02:34:57;;;;;;;;;;;;;;;0.04;100.00;99253.91;5030507;28;20321;-72
2023/03/09 02:37:31;;;;;;;;;;;;;;;0.07;100.00;99264.28;5049373;28;20576;-72
2023/03/09 02:39:57;;;;;;;;;;;;;;;0.03;100.00;99275.97;5020680;28;19928;-72
2023/03/09 02:42:22;;;;;;;;;;;;;;;0.13;100.00;99279.75;5024384;28;19952;-72
2023/03/09 02:44:48;;;;;;;;;;;;;;;0.10;100.00;99275.50;5039452;28;19931;-72
2023/03/09 02:47:14;;;;;;;;;;;;;;;0.09;100.00;99278.25;5024554;28;19923;-72
2023/03/09 02:49:39;;;;;;;;;;;;;;;-0.20;100.00;99222.78;5014793;28;19920;-72
2023/03/09 02:52:04;;;;;;;;;;;;;;;0.07;100.00;99266.94;5049719;28;22392;-72
2023/03/09 02:54:29;;;;;;;;;;;;;;;0.07;100.00;99249.28;5044631;28;20394;-72
2023/03/09 02:56:55;;;;;;;;;;;;;;;0.05;100.00;99267.00;5038339;28;19921;-72
2023/03/09 02:59:20;;;;;;;;;;;;;;;0.11;100.00;99276.38;5041109;28;19962;-72
2023/03/09 03:01:45;;;;;;;;;;;;;;;0.10;100.00;99280.78;5040845;28;19955;-72
2023/03/09 03:04:10;;;;;;;;;;;;;;;0.13;100.00;99282.41;5021474;28;20007;-72
2023/03/09 03:06:35;;;;;;;;;;;;;;;0.11;100.00;99273.72;5035653;28;19939;-72
2023/03/09 03:09:01;;;;;;;;;;;;;;;0.11;100.00;99273.72;5042389;28;19917;-72
2023/03/09 03:11:26;;;;;;;;;;;;;;;0.09;100.00;99270.31;5035054;28;19921;-72
2023/03/09 03:13:51;;;;;;;;;;;;;;;0.14;100.00;99281.44;5036759;28;19932;-72
2023/03/09 03:16:17;;;;;;;;;;;;;;;0.08;100.00;99277.38;5015572;28;19928;-72
2023/03/09 03:18:42;;;;;;;;;;;;;;;0.13;100.00;99280.59;5015235;28;20754;-73
2023/03/09 03:21:07;;;;;;;;;;;;;;;0.11;100.00;99294.84;5049378;28;19932;-72
2023/03/09 03:23:32;;;;;;;;;;;;;;;0.11;100.00;99300.94;5036163;28;20448;-72
2023/03/09 03:26:03;;;;;;;;;;;;;;;0.02;100.00;99298.00;5034744;28;19968;-72
2023/03/09 03:28:28;;;;;;;;;;;;;;;0.09;100.00;99307.28;5015603;28;20911;-72
2023/03/09 03:30:53;;;;;;;;;;;;;;;0.07;100.00;99302.06;5033876;28;19927;-72
2023/03/09 03:33:19;;;;;;;;;;;;;;;0.07;100.00;99296.78;5035535;28;19944;-72
2023/03/09 03:35:45;;;;;;;;;;;;;;;0.06;100.00;99297.72;5032100;28;19924;-72
2023/03/09 03:38:10;;;;;;;;;;;;;;;0.10;100.00;99308.97;5049621;28;20063;-72
2023/03/09 03:40:35;;;;;;;;;;;;;;;0.05;100.00;99317.16;5028516;28;20415;-72
2023/03/09 03:43:00;;;;;;;;;;;;;;;0.07;100.00;99317.91;5033105;28;19927;-72
2023/03/09 03:45:26;;;;;;;;;;;;;;;0.13;100.00;99328.09;5029393;28;19956;-72
2023/03/09 03:47:51;;;;;;;;;;;;;;;0.08;100.00;99322.25;5037851;28;19920;-72
2023/03/09 03:50:16;;;;;;;;;;;;;;;0.04;100.00;99331.28;5035568;28;19956;-73
2023/03/09 03:52:41;;;;;;;;;;;;;;;0.04;100.00;99326.00;5035404;28;19925;-72
2023/03/09 03:55:07;;;;;;;;;;;;;;;0.04;100.00;99336.56;5038256;28;20015;-72
2023/03/09 03:57:32;;;;;;;;;;;;;;;0.03;100.00;99342.78;5044261;28;19921;-72
2023/03/09 03:59:57;;;;;;;;;;;;;;;0.06;100.00;99353.16;5042140;28;19924;-72
2023/03/09 04:02:23;;;;;;;;;;;;;;;0.07;100.00;99356.66;5034469;28;19935;-72
2023/03/09 04:04:48;;;;;;;;;;;;;;;0.01;100.00;99355.19;5027108;28;20370;-72
2023/03/09 04:07:13;;;;;;;;;;;;;;;-0.06;100.00;99349.44;5042264;28;19920;-72
2023/03/09 04:09:38;;;;;;;;;;;;;;;0.01;100.00;99351.72;5043472;28;19920;-73
2023/03/09 04:12:04;;;;;;;;;;;;;;;-0.02;100.00;99356.25;5040251;28;19931;-72
2023/03/09 04:14:31;;;;;;;;;;;;;;;0.03;100.00;99361.25;5029232;28;20415;-73
2023/03/09 04:16:57;;;;;;;;;;;;;;;-0.02;100.00;99360.69;5045900;28;19956;-72
2023/03/09 04:19:22;;;;;;;;;;;;;;;0.02;100.00;99370.09;5045915;28;20102;-72
2023/03/09 04:21:47;;;;;;;;;;;;;;;0.07;100.00;99372.50;5043521;28;19921;-72
2023/03/09 04:24:12;;;;;;;;;;;;;;;0.05;100.00;99372.56;5044612;28;19928;-72
2023/03/09 04:26:37;;;;;;;;;;;;;;;0.06;100.00;99376.91;5042039;28;19921;-72
2023/03/09 04:29:03;;;;;;;;;;;;;;;0.08;100.00;99379.47;5037253;28;19962;-72
2023/03/09 04:31:28;;;;;;;;;;;;;;;0.01;100.00;99392.16;5036460;28;19979;-73
2023/03/09 04:33:53;;;;;;;;;;;;;;;0.03;100.00;99392.06;5034778;28;20220;-72
2023/03/09 04:36:19;;;;;;;;;;;;;;;0.08;100.00;99397.94;5035266;28;19968;-72
2023/03/09 04:38:44;;;;;;;;;;;;;;;0.09;100.00;99402.28;5036617;28;20023;-72
2023/03/09 04:41:10;;;;;;;;;;;;;;;0.11;100.00;99405.69;5036232;28;19921;-72
2023/03/09 04:43:35;;;;;;;;;;;;;;;0.16;100.00;99410.69;5032699;28;19952;-72
2023/03/09 04:46:01;;;;;;;;;;;;;;;0.13;100.00;99417.00;5036103;28;21152;-72
2023/03/09 04:48:26;;;;;;;;;;;;;;;0.17;100.00;99415.03;5037659;28;19925;-72
2023/03/09 04:50:51;;;;;;;;;;;;;;;0.12;100.00;99418.78;5037130;28;19920;-72
2023/03/09 04:53:16;;;;;;;;;;;;;;;0.14;100.00;99426.59;5038778;28;19924;-72
2023/03/09 04:55:42;;;;;;;;;;;;;;;0.14;100.00;99430.13;5021258;28;19963;-72
2023/03/09 04:58:07;;;;;;;;;;;;;;;0.18;100.00;99433.41;5036851;28;19925;-72
2023/03/09 05:00:32;;;;;;;;;;;;;;;0.16;100.00;99434.47;5037540;28;19968;-72
2023/03/09 05:02:58;;;;;;;;;;;;;;;0.18;100.00;99433.41;5039406;28;20264;-72
2023/03/09 05:05:23;;;;;;;;;;;;;;;0.16;100.00;99440.56;5022411;28;20333;-72
2023/03/09 05:07:48;;;;;;;;;;;;;;;0.16;100.00;99448.50;5035706;28;19921;-72
2023/03/09 05:10:14;;;;;;;;;;;;;;;0.17;100.00;99450.19;5037635;28;19921;-72
2023/03/09 05:12:39;;;;;;;;;;;;;;;0.18;100.00;99448.41;5037021;28;19932;-72
2023/03/09 05:15:05;;;;;;;;;;;;;;;0.20;100.00;99450.03;5038162;28;20048;-72
2023/03/09 05:17:31;;;;;;;;;;;;;;;0.14;100.00;99458.28;5041229;28;19932;-72
2023/03/09 05:19:56;;;;;;;;;;;;;;;0.06;100.00;99460.53;5038178;28;20036;-72
2023/03/09 05:22:21;;;;;;;;;;;;;;;0.07;100.00;99459.59;5041941;28;20047;-72
2023/03/09 05:24:46;;;;;;;;;;;;;;;0.10;100.00;99465.53;5022851;28;20017;-72
2023/03/09 05:27:12;;;;;;;;;;;;;;;0.11;100.00;99463.75;5034524;28;19971;-72
2023/03/09 05:29:38;;;;;;;;;;;;;;;0.04;100.00;99459.75;5035658;28;19921;-72
2023/03/09 05:32:03;;;;;;;;;;;;;;;0.05;100.00;99457.00;5042779;28;19998;-72
2023/03/09 05:34:29;;;;;;;;;;;;;;;0.01;100.00;99460.75;5026264;28;20695;-72
2023/03/09 05:36:54;;;;;;;;;;;;;;;0.05;100.00;99443.81;5019524;28;19928;-72
2023/03/09 05:39:19;;;;;;;;;;;;;;;0.05;100.00;99440.34;5043608;28;19925;-72
2023/03/09 05:41:44;;;;;;;;;;;;;;;0.01;100.00;99455.47;5041052;28;19921;-73
2023/03/09 05:44:09;;;;;;;;;;;;;;;0.02;100.00;99451.06;5037593;28;20267;-72
2023/03/09 05:46:35;;;;;;;;;;;;;;;0.01;100.00;99438.81;5034122;28;19924;-72
2023/03/09 05:49:00;;;;;;;;;;;;;;;0.05;100.00;99443.81;5032375;28;19960;-72
2023/03/09 05:51:25;;;;;;;;;;;;;;;0.11;100.00;99440.00;5040376;28;20043;-72
2023/03/09 05:53:51;;;;;;;;;;;;;;;0.10;100.00;99436.50;5037372;28;19921;-72
2023/03/09 05:56:16;;;;;;;;;;;;;;;0.02;100.00;99453.72;5039793;28;19916;-72
2023/03/09 05:58:41;;;;;;;;;;;;;;;0.05;100.00;99454.38;5035643;28;19925;-72
2023/03/09 06:01:27;;;;;;;;;;;;;;;0.10;100.00;99451.50;5038727;28;20015;-72
2023/03/09 06:03:52;;;;;;;;;;;;;;;0.14;100.00;99458.28;5043735;28;19921;-72
2023/03/09 06:06:17;;;;;;;;;;;;;;;0.15;100.00;99457.34;5043983;28;19927;-72
2023/03/09 06:08:43;;;;;;;;;;;;;;;0.13;100.00;99457.44;5040547;28;19970;-73
2023/03/09 06:11:08;;;;;;;;;;;;;;;0.15;100.00;99462.63;5040889;28;19966;-72
2023/03/09 06:13:33;;;;;;;;;;;;;;;0.09;100.00;99478.84;5031898;28;19925;-72
2023/03/09 06:16:01;;;;;;;;;;;;;;;0.13;100.00;99483.00;5035975;28;19921;-72
2023/03/09 06:18:27;;;;;;;;;;;;;;;0.11;100.00;99487.50;5041855;28;20019;-72
2023/03/09 06:20:52;;;;;;;;;;;;;;;0.13;100.00;99501.47;5038834;28;19921;-72
2023/03/09 06:23:17;;;;;;;;;;;;;;;0.12;100.00;99503.25;5043363;28;19942;-72
2023/03/09 06:25:43;;;;;;;;;;;;;;;0.11;100.00;99508.63;5036004;28;19921;-73
2023/03/09 06:28:08;;;;;;;;;;;;;;;0.14;100.00;99511.94;5045962;28;19917;-72
2023/03/09 06:30:40;;;;;;;;;;;;;;;0.19;100.00;99514.31;5071428;28;19924;-72
2023/03/09 06:33:05;;;;;;;;;;;;;;;0.24;100.00;99506.16;5060740;28;19966;-72
2023/03/09 06:35:31;;;;;;;;;;;;;;;0.32;100.00;99511.00;5062476;28;19966;-72
2023/03/09 06:37:57;;;;;;;;;;;;;;;0.25;100.00;99526.34;5076268;28;19981;-72
2023/03/09 06:40:22;;;;;;;;;;;;;;;0.29;100.00;99530.47;5091600;28;20314;-72
2023/03/09 06:42:48;;;;;;;;;;;;;;;0.32;100.00;99546.16;5076101;28;19917;-72
2023/03/09 06:45:13;;;;;;;;;;;;;;;0.34;100.00;99551.38;5087637;28;19921;-72
2023/03/09 06:47:38;;;;;;;;;;;;;;;0.35;100.00;99561.84;5055468;28;20211;-72
2023/03/09 06:50:03;;;;;;;;;;;;;;;0.39;100.00;99557.25;5066578;28;20813;-72
2023/03/09 06:52:29;;;;;;;;;;;;;;;0.40;100.00;99557.16;5089565;28;19924;-72
2023/03/09 06:54:54;;;;;;;;;;;;;;;0.43;100.00;99556.97;5088078;28;19920;-72
2023/03/09 06:57:19;;;;;;;;;;;;;;;0.47;100.00;99565.56;5056111;28;19924;-71
2023/03/09 06:59:44;;;;;;;;;;;;;;;0.41;100.00;99560.63;5053238;28;19998;-72
2023/03/09 07:02:13;;;;;;;;;;;;;;;0.46;100.00;99570.94;5054481;28;20129;-72
2023/03/09 07:04:38;;;;;;;;;;;;;;;0.46;100.00;99576.25;5054634;28;19928;-72
2023/03/09 07:07:03;;;;;;;;;;;;;;;0.55;100.00;99594.19;5058880;28;20397;-72
2023/03/09 07:09:31;;;;;;;;;;;;;;;0.53;100.00;99596.09;5053607;28;20385;-72
2023/03/09 07:11:56;;;;;;;;;;;;;;;0.47;100.00;99602.53;5070318;28;19928;-72
2023/03/09 07:14:22;;;;;;;;;;;;;;;0.51;100.00;99606.72;5059613;28;19921;-72
2023/03/09 07:16:51;;;;;;;;;;;;;;;0.53;100.00;99596.94;5056917;28;19960;-72
2023/03/09 07:19:16;;;;;;;;;;;;;;;0.57;100.00;99609.03;5089922;28;19951;-72
2023/03/09 07:21:41;;;;;;;;;;;;;;;0.61;100.00;99627.34;5088741;28;20044;-72
2023/03/09 07:24:06;;;;;;;;;;;;;;;0.63;100.00;99636.88;5089113;28;19927;-72
2023/03/09 07:26:32;;;;;;;;;;;;;;;0.68;100.00;99640.13;5053747;28;20326;-72
2023/03/09 07:28:57;;;;;;;;;;;;;;;0.72;100.00;99648.72;5054710;28;20375;-72
2023/03/09 07:31:23;;;;;;;;;;;;;;;0.67;100.00;99640.19;5076136;28;20325;-72
2023/03/09 07:33:49;;;;;;;;;;;;;;;0.74;100.00;99665.34;5064102;28;20094;-72
2023/03/09 07:36:14;;;;;;;;;;;;;;;0.77;100.00;99659.91;5075370;28;19920;-72
2023/03/09 07:38:39;;;;;;;;;;;;;;;0.77;100.00;99670.47;5075842;28;20378;-72
2023/03/09 07:41:06;;;;;;;;;;;;;;;0.75;100.00;99669.69;5062072;28;19928;-72
2023/03/09 07:43:31;;;;;;;;;;;;;;;0.78;100.00;99664.25;5048125;28;19920;-73
2023/03/09 07:45:56;;;;;;;;;;;;;;;0.83;100.00;99670.13;5062966;28;19939;-72
2023/03/09 07:48:22;;;;;;;;;;;;;;;0.89;100.00;99666.28;5055378;28;20298;-72
2023/03/09 07:50:47;;;;;;;;;;;;;;;0.91;100.00;99669.69;5042377;28;19960;-72
2023/03/09 07:53:12;;;;;;;;;;;;;;;0.93;100.00;99674.91;5048495;28;19972;-72
2023/03/09 07:55:38;;;;;;;;;;;;;;;0.92;100.00;99668.75;5062672;28;19950;-72
2023/03/09 07:58:03;;;;;;;;;;;;;;;0.96;100.00;99674.72;5063917;28;19924;-72
2023/03/09 08:00:28;;;;;;;;;;;;;;;1.03;100.00;99678.72;5063045;28;20014;-72
2023/03/09 08:02:54;;;;;;;;;;;;;;;1.02;100.00;99677.00;5064866;28;20468;-72
2023/03/09 08:05:19;;;;;;;;;;;;;;;1.08;100.00;99671.38;5060082;28;19927;-72
2023/03/09 08:07:46;;;;;;;;;;;;;;;1.09;100.00;99672.22;5057075;28;19920;-72
2023/03/09 08:10:13;;;;;;;;;;;;;;;1.12;100.00;99680.84;5037821;28;20325;-72
2023/03/09 08:12:38;;;;;;;;;;;;;;;1.19;100.00;99682.16;5060548;28;19956;-72
2023/03/09 08:15:04;;;;;;;;;;;;;;;1.25;100.00;99688.94;5056838;28;20373;-72
2023/03/09 08:17:29;;;;;;;;;;;;;;;1.29;100.00;99684.31;5045054;28;20086;-72
2023/03/09 08:19:54;;;;;;;;;;;;;;;1.32;100.00;99700.00;5058940;28;19921;-72
2023/03/09 08:22:19;;;;;;;;;;;;;;;1.38;100.00;99710.22;5063859;28;19964;-72
2023/03/09 08:24:45;;;;;;;;;;;;;;;1.38;100.00;99706.72;5059036;28;20169;-73
2023/03/09 08:27:10;;;;;;;;;;;;;;;1.33;100.00;99699.88;5060978;28;19920;-72
2023/03/09 08:29:35;;;;;;;;;;;;;;;1.35;100.00;99708.59;5047372;28;19924;-73
2023/03/09 08:32:04;;;;;;;;;;;;;;;1.44;100.00;99722.25;5060403;28;19920;-72
2023/03/09 08:34:29;;;;;;;;;;;;;;;1.40;100.00;99724.22;5048294;28;19927;-72
2023/03/09 08:36:55;;;;;;;;;;;;;;;1.45;100.00;99731.88;5047100;28;19924;-72
2023/03/09 08:39:21;;;;;;;;;;;;;;;1.57;100.00;99735.59;5046228;28;19920;-71
2023/03/09 08:41:46;;;;;;;;;;;;;;;1.58;100.00;99734.66;5060925;28;20328;-72
2023/03/09 08:44:12;;;;;;;;;;;;;;;1.49;100.00;99730.75;5059474;28;20128;-72
2023/03/09 08:46:37;;;;;;;;;;;;;;;1.61;100.00;99739.78;5064579;28;20045;-72
2023/03/09 08:49:02;;;;;;;;;;;;;;;1.67;100.00;99738.56;5061021;28;19954;-72
2023/03/09 08:51:28;;;;;;;;;;;;;;;1.87;100.00;99738.22;5062856;28;19921;-72
2023/03/09 08:53:54;;;;;;;;;;;;;;;2.04;100.00;99739.03;5051256;28;19920;-72
2023/03/09 08:56:19;;;;;;;;;;;;;;;2.09;100.00;99743.13;5044389;28;19974;-72
2023/03/09 08:58:44;;;;;;;;;;;;;;;2.28;100.00;99734.03;5062954;28;19973;-72
2023/03/09 09:01:10;;;;;;;;;;;;;;;2.29;100.00;99727.81;5061664;28;19920;-72
2023/03/09 09:03:35;;;;;;;;;;;;;;;2.35;100.00;99732.72;5052243;28;19928;-72
2023/03/09 09:06:11;;;;;;;;;;;;;;;2.31;100.00;99725.06;5052853;28;19963;-72
2023/03/09 09:08:36;;;;;;;;;;;;;;;2.49;100.00;99733.69;5049667;28;19920;-72
2023/03/09 09:11:08;;;;;;;;;;;;;;;2.33;100.00;99741.72;5060166;28;19974;-72
2023/03/09 09:13:33;;;;;;;;;;;;;;;2.42;100.00;99745.59;5049733;28;19926;-72
2023/03/09 09:15:59;;;;;;;;;;;;;;;2.43;100.00;99755.25;5054526;28;19920;-72
2023/03/09 09:18:25;;;;;;;;;;;;;;;2.47;100.00;99764.72;5048746;28;19920;-73
2023/03/09 09:20:50;;;;;;;;;;;;;;;2.47;100.00;99767.38;5068191;28;20294;-72
2023/03/09 09:23:15;;;;;;;;;;;;;;;2.52;100.00;99767.91;5062829;28;19924;-72
2023/03/09 09:25:40;;;;;;;;;;;;;;;2.60;100.00;99765.66;5057888;28;19935;-72
2023/03/09 09:28:05;;;;;;;;;;;;;;;2.59;100.00;99774.56;5061385;28;19917;-72
2023/03/09 09:30:32;;;;;;;;;;;;;;;2.66;100.00;99773.25;5051918;28;19971;-72
2023/03/09 09:32:58;;;;;;;;;;;;;;;2.64;100.00;99776.94;5058387;28;19928;-72
2023/03/09 09:35:23;;;;;;;;;;;;;;;2.41;100.00;99779.19;5054852;28;19921;-72
2023/03/09 09:37:49;;;;;;;;;;;;;;;2.47;100.00;99762.09;5037564;28;19928;-72
2023/03/09 09:40:14;;;;;;;;;;;;;;;2.33;100.00;99782.31;5063498;28;19927;-72
2023/03/09 09:42:40;;;;;;;;;;;;;;;2.49;100.00;99787.53;5022117;28;20267;-72
2023/03/09 09:45:07;;;;;;;;;;;;;;;2.50;100.00;99785.75;5060596;28;19971;-72
2023/03/09 09:47:32;;;;;;;;;;;;;;;2.65;100.00;99789.25;5044373;28;19943;-72
2023/03/09 09:49:58;;;;;;;;;;;;;;;2.75;100.00;99787.72;5043195;28;19924;-71
2023/03/09 09:52:46;;;;;;;;;;;;;;;2.88;100.00;99793.09;5059562;28;19943;-72
2023/03/09 09:55:12;;;;;;;;;;;;;;;3.02;100.00;99778.16;5049643;28;19928;-72
2023/03/09 09:57:40;;;;;;;;;;;;;;;2.94;100.00;99775.94;5059592;28;20274;-71
2023/03/09 10:00:06;;;;;;;;;;;;;;;2.89;100.00;99791.31;5056972;28;19923;-72
2023/03/09 10:02:35;;;;;;;;;;;;;;;2.61;100.00;99795.69;5058676;28;19921;-72
2023/03/09 10:05:05;;;;;;;;;;;;;;;2.43;100.00;99790.53;5042496;28;19927;-72
2023/03/09 10:07:30;;;;;;;;;;;;;;;2.35;100.00;99795.47;5040516;28;19970;-71
2023/03/09 10:10:00;;;;;;;;;;;;;;;2.34;100.00;99807.00;5038256;28;19925;-72
2023/03/09 10:12:26;;;;;;;;;;;;;;;2.36;100.00;99808.63;5038116;28;19921;-71
2023/03/09 10:14:52;;;;;;;;;;;;;;;2.33;100.00;99800.84;5038629;28;20378;-72
2023/03/09 10:17:20;;;;;;;;;;;;;;;2.35;100.00;99812.22;5050762;28;19943;-72
2023/03/09 10:19:45;;;;;;;;;;;;;;;2.40;100.00;99807.50;5056876;28;20350;-71
2023/03/09 10:22:16;;;;;;;;;;;;;;;2.46;100.00;99808.91;5073214;28;20050;-71
2023/03/09 10:24:45;;;;;;;;;;;;;;;2.59;100.00;99816.13;5042467;28;19977;-72
2023/03/09 10:27:17;;;;;;;;;;;;;;;2.64;100.00;99822.84;5042203;28;19921;-71
2023/03/09 10:29:44;;;;;;;;;;;;;;;2.62;100.00;99814.13;5046380;28;19921;-73
2023/03/09 10:32:12;;;;;;;;;;;;;;;2.66;100.00;99818.31;5066173;28;19920;-71
2023/03/09 10:34:45;;;;;;;;;;;;;;;2.62;100.00;99813.28;5052058;28;19927;-71
2023/03/09 10:37:13;;;;;;;;;;;;;;;2.77;100.00;99819.44;5046489;28;19920;-72
2023/03/09 10:39:44;;;;;;;;;;;;;;;2.61;100.00;99815.06;5050280;28;19921;-71
2023/03/09 10:42:14;;;;;;;;;;;;;;;2.74;100.00;99814.34;5036658;28;19920;-72
2023/03/09 10:44:39;;;;;;;;;;;;;;;2.62;100.00;99808.81;5036370;28;19920;-73
2023/03/09 10:47:04;;;;;;;;;;;;;;;2.89;100.00;99799.28;5045778;28;19974;-71
2023/03/09 10:49:30;;;;;;;;;;;;;;;3.06;100.00;99801.72;5036971;28;20011;-71
2023/03/09 10:51:58;;;;;;;;;;;;;;;3.16;100.00;99791.38;5058613;28;19928;-72
2023/03/09 10:54:24;;;;;;;;;;;;;;;3.19;100.00;99798.25;5046921;28;19924;-71
2023/03/09 10:56:51;;;;;;;;;;;;;;;3.06;100.00;99796.41;5055126;28;19958;-73
2023/03/09 10:59:18;;;;;;;;;;;;;;;2.82;100.00;99810.25;5059782;28;20003;-72
2023/03/09 11:01:44;;;;;;;;;;;;;;;2.92;100.00;99801.72;5057689;28;19932;-71
2023/03/09 11:04:21;;;;;;;;;;;;;;;2.97;100.00;99794.31;5046098;28;20350;-71
2023/03/09 11:06:50;;;;;;;;;;;;;;;3.07;100.00;99811.38;5053420;28;20316;-72
2023/03/09 11:09:35;;;;;;;;;;;;;;;3.03;100.00;99817.81;5044992;28;19963;-72
2023/03/09 11:12:08;;;;;;;;;;;;;;;3.15;100.00;99824.16;5060212;28;19921;-72
2023/03/09 11:14:33;;;;;;;;;;;;;;;2.94;100.00;99823.69;5064736;28;19924;-71
2023/03/09 11:16:59;;;;;;;;;;;;;;;3.08;100.00;99817.50;5044899;28;19921;-72
2023/03/09 11:19:25;;;;;;;;;;;;;;;3.09;100.00;99816.56;5060218;28;19921;-71
2023/03/09 11:21:56;;;;;;;;;;;;;;;3.14;100.00;99807.38;5063468;28;19927;-71
2023/03/09 11:24:21;;;;;;;;;;;;;;;3.28;100.00;99816.25;5061491;28;19924;-71
2023/03/09 11:26:59;;;;;;;;;;;;;;;3.24;100.00;99818.25;5031214;28;19977;-72
2023/03/09 11:29:42;;;;;;;;;;;;;;;3.36;100.00;99821.06;5062405;28;19954;-72
2023/03/09 11:32:09;;;;;;;;;;;;;;;3.41;100.00;99813.66;5057074;28;19920;-72
2023/03/09 11:34:35;;;;;;;;;;;;;;;3.39;100.00;99811.13;5062608;28;20629;-72
2023/03/09 11:37:09;;;;;;;;;;;;;;;3.21;100.00;99810.50;5048064;28;19972;-71
2023/03/09 11:39:42;;;;;;;;;;;;;;;3.08;100.00;99807.78;5066755;28;19928;-72
2023/03/09 11:42:09;;;;;;;;;;;;;;;3.26;100.00;99812.84;5024470;28;19928;-72
2023/03/09 11:44:36;;;;;;;;;;;;;;;3.14;100.00;99811.84;5066248;28;20278;-72
2023/03/09 11:47:02;;;;;;;;;;;;;;;3.18;100.00;99818.66;5044326;28;20340;-72
2023/03/09 11:49:27;;;;;;;;;;;;;;;3.23;100.00;99819.22;5052271;28;19924;-72
2023/03/09 11:51:53;;;;;;;;;;;;;;;3.23;100.00;99813.91;5045382;28;19927;-72
2023/03/09 11:54:30;;;;;;;;;;;;;;;3.26;100.00;99815.50;5062963;28;20644;-72
2023/03/09 11:56:55;;;;;;;;;;;;;;;3.34;100.00;99812.34;5059285;28;19920;-71
2023/03/09 11:59:27;;;;;;;;;;;;;;;3.32;100.00;99800.97;5041135;28;20366;-72
2023/03/09 12:01:56;;;;;;;;;;;;;;;3.21;100.00;99802.53;5052664;28;20289;-73
2023/03/09 12:04:21;;;;;;;;;;;;;;;3.29;100.00;99805.56;5042577;28;19982;-72
2023/03/09 12:06:46;;;;;;;;;;;;;;;3.39;100.00;99812.91;5062585;28;19920;-71
2023/03/09 12:09:32;;;;;;;;;;;;;;;3.30;100.00;99806.41;5056079;28;19927;-72
2023/03/09 12:12:02;;;;;;;;;;;;;;;3.37;100.00;99805.06;5043629;28;19920;-72
2023/03/09 12:14:34;;;;;;;;;;;;;;;3.26;100.00;99808.41;5057668;28;19927;-72
2023/03/09 12:17:00;;;;;;;;;;;;;;;3.35;100.00;99808.75;5055649;28;20005;-72
2023/03/09 12:19:29;;;;;;;;;;;;;;;3.30;100.00;99803.75;5039234;28;19929;-72
2023/03/09 12:22:05;;;;;;;;;;;;;;;3.25;100.00;99804.06;5054635;28;19936;-73
2023/03/09 12:24:30;;;;;;;;;;;;;;;3.12;100.00;99798.69;5060495;28;19946;-72
2023/03/09 12:26:56;;;;;;;;;;;;;;;3.13;100.00;99796.88;5058093;28;19924;-72
2023/03/09 12:29:21;;;;;;;;;;;;;;;3.15;100.00;99798.47;5056530;28;19925;-74
2023/03/09 12:32:06;;;;;;;;;;;;;;;3.12;100.00;99798.69;5047464;28;19927;-72
2023/03/09 12:34:38;;;;;;;;;;;;;;;3.12;100.00;99803.97;5059520;28;20011;-72
2023/03/09 12:37:29;;;;;;;;;;;;;;;2.97;100.00;99796.97;5059216;28;20437;-72
2023/03/09 12:39:58;;;;;;;;;;;;;;;2.99;100.00;99795.09;5052210;28;20524;-72
2023/03/09 12:42:28;;;;;;;;;;;;;;;3.08;100.00;99798.94;5048557;28;19931;-72